Tucumcari ASC

2021-09-20 22:25:00

  • imperial
Date Time Air Temperature Relative Humidity Dewpoint Windchill Heat Index Wind Speed Wind Dir. Rain Solar Radiation Soil Temperature
2m 2m 3m 3m 10cm
US/Mountain F % F F F MPH deg in MJ/m^2 F
max avg avg
2021-09-19 22:35:00 77.4 32.3 45.5 77.4 77.4 5.8 7.8 4.6 171.4 190.1 0.00 0.0000000 83.1
2021-09-19 22:40:00 77.0 32.6 45.4 77.0 77.0 4.2 7.1 5.0 218.5 196.1 0.00 0.0000000 83.0
2021-09-19 22:45:00 76.4 33.4 45.5 76.4 76.4 5.3 6.3 4.9 194.8 202.8 0.00 0.0000000 82.9
2021-09-19 22:50:00 75.9 33.9 45.5 75.9 75.9 4.9 7.4 5.7 216.7 215.6 0.00 0.0000000 82.7
2021-09-19 22:55:00 75.3 34.6 45.4 75.3 75.3 5.8 6.7 5.4 217.9 226.5 0.00 0.0000000 82.6
2021-09-19 23:00:00 74.8 35.3 45.5 74.8 74.8 4.6 6.2 5.1 224.5 218.9 0.00 0.0000000 82.5
2021-09-19 23:05:00 74.3 35.8 45.5 74.3 74.3 4.4 6.2 5.3 208.6 222.4 0.00 0.0000000 82.4
2021-09-19 23:10:00 73.8 36.6 45.6 73.8 73.8 4.9 6.3 5.1 219.6 218.5 0.00 0.0000000 82.2
2021-09-19 23:15:00 73.7 36.5 45.5 73.7 73.7 4.9 6.9 5.7 221.4 211.8 0.00 0.0000000 82.1
2021-09-19 23:20:00 73.5 36.7 45.4 73.5 73.5 6.0 7.1 5.7 194.6 208.4 0.00 0.0000000 82.0
2021-09-19 23:25:00 73.3 36.4 45.1 73.3 73.3 4.9 7.4 5.7 195.4 204.8 0.00 0.0000000 81.9
2021-09-19 23:30:00 73.6 36.4 45.3 73.6 73.6 6.2 7.4 5.7 229.6 202.8 0.00 0.0000000 81.8
2021-09-19 23:35:00 73.2 36.4 45.0 73.2 73.2 4.7 7.6 5.0 247.7 197.2 0.00 0.0000000 81.6
2021-09-19 23:40:00 73.2 36.5 45.0 73.2 73.2 6.0 7.1 5.6 219.7 209.2 0.00 0.0000000 81.5
2021-09-19 23:45:00 73.3 36.4 45.1 73.3 73.3 5.8 7.4 5.7 194.4 205.3 0.00 0.0000000 81.4
2021-09-19 23:50:00 73.1 36.8 45.1 73.1 73.1 5.6 8.5 5.5 177.3 187.0 0.00 0.0000000 81.3
2021-09-19 23:55:00 73.1 36.6 45.0 73.1 73.1 8.1 8.7 6.8 186.2 184.4 0.00 0.0000000 81.2
2021-09-20 00:00:00 73.6 35.7 44.8 73.6 73.6 9.7 12.2 7.4 189.1 184.7 0.00 0.0000000 81.1
2021-09-20 00:05:00 74.6 33.4 44.0 74.6 74.6 8.5 11.5 9.5 175.5 187.3 0.00 0.0000000 81.0
2021-09-20 00:10:00 74.3 33.6 43.9 74.3 74.3 6.2 10.8 7.5 203.2 193.6 0.00 0.0000000 80.9
2021-09-20 00:15:00 74.0 34.2 44.0 74.0 74.0 7.4 9.2 6.9 141.8 190.4 0.00 0.0000000 80.8
2021-09-20 00:20:00 73.5 34.9 44.1 73.5 73.5 6.2 7.8 5.8 219.7 190.7 0.00 0.0000000 80.7
2021-09-20 00:25:00 73.4 34.7 43.8 73.4 73.4 5.6 8.1 6.4 196.4 187.5 0.00 0.0000000 80.6
2021-09-20 00:30:00 73.7 33.9 43.5 73.7 73.7 7.2 9.6 6.6 195.9 186.5 0.00 0.0000000 80.5
2021-09-20 00:35:00 74.0 33.2 43.2 74.0 74.0 9.2 9.9 6.6 174.6 186.3 0.00 0.0000000 80.4
2021-09-20 00:40:00 74.2 32.9 43.2 74.2 74.2 4.4 9.4 6.1 197.0 192.1 0.00 0.0000000 80.3
2021-09-20 00:45:00 74.2 33.2 43.5 74.2 74.2 4.6 6.5 4.8 196.9 202.7 0.00 0.0000000 80.2
2021-09-20 00:50:00 73.9 33.6 43.4 73.9 73.9 5.6 5.6 3.7 215.3 205.0 0.00 0.0000000 80.2
2021-09-20 00:55:00 74.2 32.8 43.1 74.2 74.2 7.8 8.5 5.6 175.8 196.0 0.00 0.0000000 80.1
2021-09-20 01:00:00 74.6 32.0 42.8 74.6 74.6 9.7 10.6 6.4 201.8 191.8 0.00 0.0000000 80.0
2021-09-20 01:05:00 75.1 30.6 42.1 75.1 75.1 6.2 9.2 7.3 225.9 200.6 0.00 0.0000000 79.9
2021-09-20 01:10:00 75.7 29.9 42.0 75.7 75.7 5.6 12.1 8.9 219.4 218.0 0.00 0.0000000 79.8
2021-09-20 01:15:00 75.6 30.4 42.3 75.6 75.6 6.2 7.8 5.9 244.4 244.6 0.00 0.0000000 79.7
2021-09-20 01:20:00 74.8 31.9 42.9 74.8 74.8 5.5 8.5 6.1 258.7 264.3 0.00 0.0000000 79.7
2021-09-20 01:25:00 75.2 31.7 43.0 75.2 75.2 8.3 10.6 6.9 197.5 235.5 0.00 0.0000000 79.6
2021-09-20 01:30:00 75.9 31.0 43.2 75.9 75.9 8.5 11.2 8.0 202.0 209.5 0.00 0.0000000 79.5
2021-09-20 01:35:00 76.4 31.0 43.5 76.4 76.4 8.5 12.1 8.5 216.0 208.8 0.00 0.0000000 79.4
2021-09-20 01:40:00 77.0 30.2 43.4 77.0 77.0 8.7 11.7 8.9 206.7 217.2 0.00 0.0000000 79.4
2021-09-20 01:45:00 76.8 30.5 43.4 76.8 76.8 8.1 11.2 7.9 189.9 204.3 0.00 0.0000000 79.3
2021-09-20 01:50:00 76.4 31.1 43.6 76.4 76.4 5.8 8.8 6.0 205.8 201.0 0.00 0.0000000 79.2
2021-09-20 01:55:00 76.2 31.2 43.5 76.2 76.2 10.3 10.3 7.2 222.8 207.7 0.00 0.0000000 79.2
2021-09-20 02:00:00 76.3 30.4 42.9 76.3 76.3 8.8 10.1 7.3 184.6 201.4 0.00 0.0000000 79.1
2021-09-20 02:05:00 76.0 30.0 42.3 76.0 76.0 8.7 11.9 8.5 203.8 211.8 0.00 0.0000000 79.0
2021-09-20 02:10:00 75.7 30.1 42.1 75.7 75.7 7.1 10.6 7.8 220.0 210.3 0.00 0.0000000 79.0
2021-09-20 02:15:00 75.3 29.8 41.6 75.3 75.3 8.1 9.2 6.8 197.0 204.8 0.00 0.0000000 78.9
2021-09-20 02:20:00 75.0 30.0 41.4 75.0 75.0 6.2 10.3 6.1 189.5 194.9 0.00 0.0000000 78.8
2021-09-20 02:25:00 74.6 30.2 41.2 74.6 74.6 6.5 8.3 6.2 207.3 194.7 0.00 0.0000000 78.8
2021-09-20 02:30:00 73.7 30.9 41.1 73.7 73.7 4.7 7.4 5.6 159.1 184.8 0.00 0.0000000 78.7
2021-09-20 02:35:00 73.5 31.0 41.1 73.5 73.5 6.5 8.1 6.3 174.6 186.3 0.00 0.0000000 78.6
2021-09-20 02:40:00 73.3 31.3 41.1 73.3 73.3 7.2 9.0 6.4 187.9 189.1 0.00 0.0000000 78.6
2021-09-20 02:45:00 72.8 32.2 41.4 72.8 72.8 5.1 8.3 6.2 179.2 189.9 0.00 0.0000000 78.5
2021-09-20 02:50:00 72.5 32.7 41.5 72.5 72.5 6.0 7.1 5.4 188.2 190.3 0.00 0.0000000 78.4
2021-09-20 02:55:00 72.2 33.2 41.7 72.2 72.2 6.0 8.3 6.3 193.0 185.6 0.00 0.0000000 78.3
2021-09-20 03:00:00 71.6 33.9 41.7 71.6 71.6 6.2 8.3 6.2 191.5 187.3 0.00 0.0000000 78.2
2021-09-20 03:05:00 71.3 34.5 41.8 71.3 71.3 7.2 7.2 6.0 185.3 187.4 0.00 0.0000000 78.2
2021-09-20 03:10:00 71.2 34.8 42.0 71.2 71.2 8.1 8.5 6.7 203.8 186.2 0.00 0.0000000 78.1
2021-09-20 03:15:00 70.4 35.8 42.0 70.4 70.4 8.5 8.5 6.0 165.3 187.4 0.00 0.0000000 78.0
2021-09-20 03:20:00 70.2 36.3 42.2 70.2 70.2 6.7 7.4 6.1 196.3 183.9 0.00 0.0000000 77.9
2021-09-20 03:25:00 70.1 36.3 42.1 70.1 70.1 6.5 9.0 6.8 169.5 188.4 0.00 0.0000000 77.8
2021-09-20 03:30:00 69.8 36.6 42.1 69.8 69.8 6.0 8.8 6.0 194.7 185.9 0.00 0.0000000 77.7
2021-09-20 03:35:00 69.8 36.7 42.1 69.8 69.8 5.3 9.2 6.5 181.9 195.1 0.00 0.0000000 77.6
2021-09-20 03:40:00 69.8 36.6 42.1 69.8 69.8 7.6 9.2 6.9 219.3 198.8 0.00 0.0000000 77.6
2021-09-20 03:45:00 69.7 37.1 42.3 69.7 69.7 5.1 8.0 5.6 150.3 198.7 0.00 0.0000000 77.5
2021-09-20 03:50:00 69.3 37.5 42.3 69.3 69.3 5.5 8.0 4.9 220.4 199.3 0.00 0.0000000 77.4
2021-09-20 03:55:00 69.2 37.3 42.1 69.2 69.2 3.8 9.2 5.5 223.4 202.4 0.00 0.0000000 77.3
2021-09-20 04:00:00 68.8 37.5 41.9 68.8 68.8 4.6 8.8 5.4 207.5 202.4 0.00 0.0000000 77.2
2021-09-20 04:05:00 68.7 37.6 41.8 68.7 68.7 7.1 9.7 6.9 188.3 193.7 0.00 0.0000000 77.1
2021-09-20 04:10:00 68.5 38.1 41.9 68.5 68.5 7.1 9.6 7.4 184.7 193.7 0.00 0.0000000 77.1
2021-09-20 04:15:00 68.3 38.7 42.2 68.3 68.3 7.1 9.4 6.5 184.4 194.0 0.00 0.0000000 77.0
2021-09-20 04:20:00 68.3 39.3 42.6 68.3 68.3 8.8 8.8 6.4 209.6 197.5 0.00 0.0000000 76.9
2021-09-20 04:25:00 68.2 39.8 42.9 68.2 68.2 6.5 10.1 6.6 176.6 200.9 0.00 0.0000000 76.8
2021-09-20 04:30:00 68.2 40.3 43.1 68.2 68.2 7.1 8.0 6.3 202.7 206.0 0.00 0.0000000 76.7
2021-09-20 04:35:00 67.9 40.8 43.2 67.9 67.9 4.9 8.5 5.8 177.0 199.3 0.00 0.0000000 76.6
2021-09-20 04:40:00 67.2 41.9 43.3 67.2 67.2 4.6 7.1 5.1 173.4 191.2 0.00 0.0000000 76.5
2021-09-20 04:45:00 66.6 42.5 43.1 66.6 66.6 3.7 6.5 4.8 190.4 193.1 0.00 0.0000000 76.5
2021-09-20 04:50:00 66.4 42.8 43.1 66.4 66.4 2.4 5.6 3.7 293.4 209.0 0.00 0.0000000 76.4
2021-09-20 04:55:00 65.9 43.7 43.2 65.9 65.9 3.5 3.8 2.7 24.5 343.5 0.00 0.0000000 76.3
2021-09-20 05:00:00 66.1 43.5 43.3 66.1 66.1 0.8 3.7 2.1 202.2 26.2 0.00 0.0000000 76.2
2021-09-20 05:05:00 66.1 43.7 43.4 66.1 66.1 1.3 4.0 2.1 151.3 199.5 0.00 0.0000000 76.1
2021-09-20 05:10:00 65.6 44.4 43.4 65.6 65.6 3.0 3.8 2.3 165.0 168.9 0.00 0.0000000 76.0
2021-09-20 05:15:00 65.4 45.1 43.6 65.4 65.4 3.0 3.7 2.6 152.2 167.9 0.00 0.0000000 75.9
2021-09-20 05:20:00 65.3 45.5 43.7 65.3 65.3 1.2 3.7 1.8 322.4 166.5 0.00 0.0000000 75.8
2021-09-20 05:25:00 64.9 46.0 43.6 64.9 64.9 2.8 3.8 2.7 44.3 32.9 0.00 0.0000000 75.7
2021-09-20 05:30:00 64.5 46.5 43.6 64.5 64.5 2.6 3.3 2.8 77.6 68.8 0.00 0.0000000 75.7
2021-09-20 05:35:00 64.7 46.2 43.5 64.7 64.7 1.0 2.6 1.8 60.4 75.4 0.00 0.0000000 75.6
2021-09-20 05:40:00 64.9 46.0 43.6 64.9 64.9 0.0 2.4 1.4 30.0 17.0 0.00 0.0000000 75.5
2021-09-20 05:45:00 65.0 45.9 43.7 65.0 65.0 1.3 1.9 0.2 146.9 159.1 0.00 0.0000000 75.3
2021-09-20 05:50:00 65.0 46.0 43.8 65.0 65.0 0.0 2.2 1.1 150.3 128.3 0.00 0.0000000 75.3
2021-09-20 05:55:00 65.0 46.2 43.8 65.0 65.0 0.0 1.5 0.5 142.1 176.2 0.00 0.0000000 75.2
2021-09-20 06:00:00 64.9 46.3 43.8 64.9 64.9 0.0 0.8 0.1 348.0 222.6 0.00 0.0000000 75.1
2021-09-20 06:05:00 65.0 45.8 43.6 65.0 65.0 1.7 3.0 1.8 193.1 306.8 0.00 0.0000000 75.0
2021-09-20 06:10:00 65.3 45.7 43.8 65.3 65.3 2.4 2.6 2.0 168.8 165.1 0.00 0.0000000 74.9
2021-09-20 06:15:00 64.8 46.4 43.8 64.8 64.8 3.3 3.3 1.8 26.4 148.2 0.00 0.0000000 74.8
2021-09-20 06:20:00 64.7 46.7 43.8 64.7 64.7 4.4 5.6 4.5 0.4 10.3 0.00 0.0000000 74.6
2021-09-20 06:25:00 66.9 43.8 44.2 66.9 66.9 4.2 5.1 3.6 252.6 294.8 0.00 0.0000000 74.5
2021-09-20 06:30:00 67.7 42.9 44.3 67.7 67.7 4.4 6.0 4.9 247.6 245.4 0.00 0.0000000 74.4
2021-09-20 06:35:00 66.9 44.1 44.3 66.9 66.9 3.5 5.5 3.9 271.2 258.4 0.00 0.0000000 74.3
2021-09-20 06:40:00 67.0 43.9 44.3 67.0 67.0 4.6 4.9 3.6 216.9 248.5 0.00 0.0000566 74.2
2021-09-20 06:45:00 64.5 47.7 44.2 64.5 64.5 5.1 5.6 4.7 204.3 197.2 0.00 0.0005129 74.2
2021-09-20 06:50:00 65.1 46.8 44.3 65.1 65.1 3.8 5.8 4.6 204.5 215.8 0.00 0.0045223 74.1
2021-09-20 06:55:00 64.9 47.1 44.3 64.9 64.9 1.5 4.4 2.6 229.7 215.7 0.00 0.0088192 74.0
2021-09-20 07:00:00 64.9 47.3 44.4 64.9 64.9 1.7 1.9 1.4 264.1 256.2 0.00 0.0135174 73.9
2021-09-20 07:05:00 66.1 45.5 44.4 66.1 66.1 3.3 3.3 2.6 210.5 239.3 0.00 0.0185961 73.8
2021-09-20 07:10:00 66.1 45.4 44.4 66.1 66.1 3.5 4.0 3.7 206.6 203.3 0.00 0.0232597 73.7
2021-09-20 07:15:00 65.7 45.9 44.3 65.7 65.7 2.4 4.6 3.7 206.5 200.6 0.00 0.0278333 73.7
2021-09-20 07:20:00 66.2 45.9 44.7 66.2 66.2 2.6 3.1 2.2 184.4 178.8 0.00 0.0323806 73.6
2021-09-20 07:25:00 66.2 45.3 44.4 66.2 66.2 3.7 4.4 2.6 206.4 194.0 0.00 0.0368815 73.5
2021-09-20 07:30:00 66.3 45.7 44.7 66.3 66.3 2.6 3.7 3.1 213.2 215.6 0.00 0.0416548 73.5
2021-09-20 07:35:00 66.7 46.4 45.4 66.7 66.7 1.9 2.8 2.1 199.2 241.2 0.00 0.0463625 73.4
2021-09-20 07:40:00 67.5 45.7 45.8 67.5 67.5 1.9 3.3 2.4 172.0 175.1 0.00 0.0510719 73.4
2021-09-20 07:45:00 68.2 44.2 45.6 68.2 68.2 3.8 5.5 3.6 199.9 174.3 0.00 0.0560801 73.4
2021-09-20 07:50:00 68.5 44.1 45.8 68.5 68.5 4.2 4.9 3.9 221.6 197.3 0.00 0.0611654 73.4
2021-09-20 07:55:00 68.6 44.9 46.4 68.6 68.6 3.1 4.7 3.2 222.2 207.4 0.00 0.0659190 73.4
2021-09-20 08:00:00 69.7 43.3 46.4 69.7 69.7 2.6 4.6 2.9 222.6 230.8 0.00 0.0707827 73.5
2021-09-20 08:05:00 70.8 41.3 46.1 70.8 70.8 4.4 5.6 3.4 248.1 229.0 0.00 0.0758873 73.5
2021-09-20 08:10:00 72.1 39.4 46.0 72.1 72.1 4.0 8.1 5.6 235.2 242.9 0.00 0.0813655 73.5
2021-09-20 08:15:00 72.6 38.3 45.8 72.6 72.6 4.0 7.8 5.0 241.7 228.8 0.00 0.0865988 73.6
2021-09-20 08:20:00 73.1 37.3 45.5 73.1 73.1 3.8 7.6 5.4 230.3 243.7 0.00 0.0919765 73.7
2021-09-20 08:25:00 73.6 37.0 45.8 73.6 73.6 3.3 8.7 5.5 230.7 234.2 0.00 0.0970672 73.8
2021-09-20 08:30:00 73.8 36.1 45.3 73.8 73.8 7.6 10.3 6.8 228.2 229.7 0.00 0.1025396 73.9
2021-09-20 08:35:00 74.2 35.7 45.3 74.2 74.2 7.2 9.6 7.1 235.6 223.5 0.00 0.1076204 74.0
2021-09-20 08:40:00 75.1 35.0 45.6 75.1 75.1 6.2 8.7 5.5 248.0 231.7 0.00 0.1132458 74.2
2021-09-20 08:45:00 75.1 34.8 45.5 75.1 75.1 5.5 10.5 7.2 246.1 241.4 0.00 0.1186255 74.3
2021-09-20 08:50:00 76.2 33.9 45.7 76.2 76.2 9.0 9.9 7.4 267.0 256.2 0.00 0.1239785 74.4
2021-09-20 08:55:00 76.4 33.4 45.4 76.4 76.4 9.6 11.5 8.8 273.5 263.8 0.00 0.1290595 74.6
2021-09-20 09:00:00 77.1 33.2 46.0 77.1 77.1 6.9 10.1 7.8 277.5 263.4 0.00 0.1342180 74.8
2021-09-20 09:05:00 76.9 32.8 45.5 76.9 76.9 7.6 12.8 9.5 293.6 269.0 0.00 0.1391132 74.9
2021-09-20 09:10:00 77.5 32.6 45.8 77.5 77.5 8.8 9.9 7.9 324.7 317.9 0.00 0.1439897 75.1
2021-09-20 09:15:00 74.4 33.2 43.6 74.4 74.4 21.7 21.7 12.0 36.0 26.1 0.00 0.1486953 75.3
2021-09-20 09:20:00 73.4 33.9 43.3 73.4 73.4 18.5 19.0 14.4 44.7 45.1 0.00 0.1530882 75.5
2021-09-20 09:25:00 73.7 33.6 43.3 73.7 73.7 14.0 21.4 14.2 38.3 50.9 0.00 0.1587272 75.7
2021-09-20 09:30:00 73.2 33.9 43.1 73.2 73.2 13.0 19.8 15.5 43.4 50.3 0.00 0.1637497 75.8
2021-09-20 09:35:00 73.4 33.5 43.0 73.4 73.4 12.8 17.6 12.8 47.6 38.6 0.00 0.1679854 75.9
2021-09-20 09:40:00 73.2 33.7 42.9 73.2 73.2 19.2 19.9 14.6 47.7 45.7 0.00 0.1732574 76.0
2021-09-20 09:45:00 73.0 33.8 42.7 73.0 73.0 12.8 18.5 13.4 42.0 42.6 0.00 0.1778901 76.0
2021-09-20 09:50:00 73.0 34.4 43.2 73.0 73.0 11.3 20.1 13.8 42.0 38.0 0.00 0.1822429 76.1
2021-09-20 09:55:00 72.7 34.2 42.9 72.7 72.7 15.1 17.1 13.4 39.0 35.0 0.00 0.1869329 76.1
2021-09-20 10:00:00 73.0 34.2 43.1 73.0 73.0 16.2 21.7 13.9 66.7 45.3 0.00 0.1914701 76.1
2021-09-20 10:05:00 72.9 34.6 43.3 72.9 72.9 11.3 19.0 13.7 35.8 44.9 0.00 0.1956698 76.1
2021-09-20 10:10:00 73.4 34.1 43.4 73.4 73.4 10.1 16.5 11.6 58.8 37.6 0.00 0.1993664 76.1
2021-09-20 10:15:00 73.1 34.4 43.3 73.1 73.1 14.7 16.7 12.6 55.0 38.5 0.00 0.2034779 76.1
2021-09-20 10:20:00 73.0 34.6 43.4 73.0 73.0 12.8 19.0 13.7 53.2 44.6 0.00 0.2073671 76.1
2021-09-20 10:25:00 73.2 34.4 43.5 73.2 73.2 10.3 17.8 12.6 45.6 38.5 0.00 0.2114238 76.1
2021-09-20 10:30:00 73.9 34.0 43.8 73.9 73.9 15.3 18.0 12.2 51.4 45.7 0.00 0.2148851 76.1
2021-09-20 10:35:00 73.7 34.1 43.6 73.7 73.7 11.5 17.4 13.0 54.1 49.7 0.00 0.2187168 76.1
2021-09-20 10:40:00 74.2 33.8 43.9 74.2 74.2 8.5 16.0 12.1 61.2 38.3 0.00 0.2223315 76.1
2021-09-20 10:45:00 74.4 33.6 43.8 74.4 74.4 13.0 18.7 11.8 44.9 49.4 0.00 0.2256195 76.2
2021-09-20 10:50:00 74.9 33.1 43.9 74.9 74.9 10.6 15.3 11.6 67.0 54.4 0.00 0.2284863 76.3
2021-09-20 10:55:00 74.5 33.3 43.7 74.5 74.5 9.2 16.2 12.3 64.3 52.3 0.00 0.2316987 76.5
2021-09-20 11:00:00 75.2 32.3 43.6 75.2 75.2 11.0 17.4 11.0 29.4 48.4 0.00 0.2344762 76.7
2021-09-20 11:05:00 75.7 32.6 44.2 75.7 75.7 14.2 16.5 12.1 61.1 62.3 0.00 0.2376830 76.9
2021-09-20 11:10:00 75.3 32.7 44.0 75.3 75.3 10.8 16.7 11.0 3.2 40.6 0.00 0.2402241 77.1
2021-09-20 11:15:00 76.1 31.8 44.0 76.1 76.1 12.4 15.3 11.7 78.4 59.6 0.00 0.2432479 77.4
2021-09-20 11:20:00 75.8 31.9 43.7 75.8 75.8 10.3 14.6 11.0 80.9 56.8 0.00 0.2456623 77.7
2021-09-20 11:25:00 75.7 32.6 44.2 75.7 75.7 9.4 15.6 11.0 50.8 67.2 0.00 0.2474965 78.0
2021-09-20 11:30:00 75.6 32.1 43.7 75.6 75.6 12.8 18.5 14.2 62.2 65.8 0.00 0.2495788 78.3
2021-09-20 11:35:00 75.9 31.9 43.8 75.9 75.9 10.5 16.9 13.2 52.6 55.3 0.00 0.2507880 78.6
2021-09-20 11:40:00 76.3 31.8 44.1 76.3 76.3 7.8 18.0 12.0 98.9 60.8 0.00 0.2531862 78.9
2021-09-20 11:45:00 77.8 30.6 44.4 77.8 77.8 11.3 17.6 11.5 69.1 60.4 0.00 0.2561332 79.2
2021-09-20 11:50:00 77.8 30.6 44.4 77.8 77.8 17.2 19.2 12.3 73.6 56.4 0.00 0.2566209 79.5
2021-09-20 11:55:00 76.5 31.4 44.0 76.5 76.5 11.7 18.3 14.6 67.2 66.7 0.00 0.2592062 79.8
2021-09-20 12:00:00 77.0 30.6 43.7 77.0 77.0 12.2 15.1 10.8 62.8 80.3 0.00 0.2601659 80.1
2021-09-20 12:05:00 77.6 30.0 43.7 77.6 77.6 14.6 14.6 9.4 91.6 71.1 0.00 0.2620690 80.4
2021-09-20 12:10:00 78.5 30.0 44.5 78.5 78.5 10.1 15.6 10.7 53.7 77.3 0.00 0.2634796 80.7
2021-09-20 12:15:00 78.4 29.6 44.0 78.4 78.4 14.4 15.8 10.3 65.7 73.3 0.00 0.2636391 81.0
2021-09-20 12:20:00 77.4 30.0 43.5 77.4 77.4 12.4 14.6 10.6 101.9 87.8 0.00 0.2637375 81.3
2021-09-20 12:25:00 77.5 30.5 44.1 77.5 77.5 11.2 17.2 11.0 77.5 79.7 0.00 0.2641780 81.6
2021-09-20 12:30:00 77.6 30.1 43.8 77.6 77.6 11.7 19.8 11.4 56.7 83.4 0.00 0.2650695 81.9
2021-09-20 12:35:00 77.7 30.6 44.3 77.7 77.7 11.7 14.0 9.7 51.9 79.2 0.00 0.2659312 82.2
2021-09-20 12:40:00 77.8 29.8 43.8 77.8 77.8 8.1 14.7 11.5 75.7 63.1 0.00 0.2648370 82.5
2021-09-20 12:45:00 78.6 28.8 43.5 78.6 78.6 11.3 14.0 10.1 123.0 76.8 0.00 0.2652027 82.8
2021-09-20 12:50:00 78.4 29.4 43.8 78.4 78.4 13.5 14.9 10.5 62.1 99.0 0.00 0.2658406 83.1
2021-09-20 12:55:00 77.9 29.5 43.6 77.9 77.9 11.5 15.8 12.1 89.4 75.9 0.00 0.2655726 83.4
2021-09-20 13:00:00 78.5 29.6 44.1 78.5 78.5 11.3 12.8 9.4 68.0 76.4 0.00 0.2657700 83.7
2021-09-20 13:05:00 78.4 29.9 44.3 78.4 78.4 8.7 16.0 11.9 70.7 59.1 0.00 0.2648396 84.0
2021-09-20 13:10:00 78.5 28.9 43.5 78.5 78.5 11.0 16.7 11.2 70.2 61.6 0.00 0.2640663 84.2
2021-09-20 13:15:00 80.4 28.0 44.3 80.4 80.4 8.5 11.3 7.9 115.2 89.4 0.00 0.2640612 84.5
2021-09-20 13:20:00 79.8 28.6 44.3 79.8 79.8 13.1 15.1 10.7 50.0 83.7 0.00 0.2635083 84.8
2021-09-20 13:25:00 78.8 28.5 43.4 78.8 78.8 7.6 14.7 9.5 52.2 68.9 0.00 0.2606553 85.0
2021-09-20 13:30:00 80.3 28.0 44.2 80.3 80.3 11.5 13.9 9.2 96.0 78.9 0.00 0.2593239 85.3
2021-09-20 13:35:00 79.6 28.4 44.0 79.6 79.6 8.1 14.7 9.3 77.5 69.2 0.00 0.2580560 85.5
2021-09-20 13:40:00 80.1 28.4 44.4 80.1 80.1 9.7 13.3 8.7 122.9 78.6 0.00 0.2566200 85.7
2021-09-20 13:45:00 80.4 27.6 44.0 80.4 80.4 7.8 13.5 10.6 74.9 69.0 0.00 0.2547596 86.0
2021-09-20 13:50:00 80.1 27.8 43.9 80.1 80.1 10.6 14.4 10.0 105.2 86.1 0.00 0.2542826 86.2
2021-09-20 13:55:00 80.4 27.3 43.7 80.4 80.4 8.7 14.6 9.5 104.0 87.5 0.00 0.2520861 86.4
2021-09-20 14:00:00 80.9 27.1 43.9 80.9 80.9 13.3 13.3 8.2 113.2 88.1 0.00 0.2497862 86.6
2021-09-20 14:05:00 80.5 27.2 43.7 80.5 80.5 8.3 16.0 11.2 75.4 73.6 0.00 0.2479958 86.9
2021-09-20 14:10:00 80.7 27.5 44.0 80.7 80.7 11.3 13.5 10.0 66.8 79.3 0.00 0.2457737 87.1
2021-09-20 14:15:00 80.1 27.7 43.8 80.1 80.1 10.8 17.1 12.2 54.5 67.9 0.00 0.2430309 87.3
2021-09-20 14:20:00 80.7 27.2 43.8 80.7 80.7 7.2 14.6 11.2 117.3 57.9 0.00 0.2399842 87.5
2021-09-20 14:25:00 81.6 27.1 44.5 81.6 81.6 8.0 15.1 10.3 54.8 64.1 0.00 0.2380049 87.7
2021-09-20 14:30:00 81.0 26.7 43.6 81.0 81.0 6.2 13.9 9.9 111.5 97.2 0.00 0.2347495 87.9
2021-09-20 14:35:00 81.7 26.8 44.3 81.7 81.7 5.8 16.0 10.1 74.9 81.6 0.00 0.2306625 88.1
2021-09-20 14:40:00 82.3 25.9 43.9 82.3 82.3 9.6 15.3 8.1 81.4 100.4 0.00 0.2288532 88.2
2021-09-20 14:45:00 81.5 26.3 43.6 81.5 81.5 13.7 13.7 10.3 66.9 78.6 0.00 0.2258272 88.4
2021-09-20 14:50:00 82.6 25.9 44.1 82.6 82.6 12.1 14.6 9.4 115.8 94.9 0.00 0.2223444 88.5
2021-09-20 14:55:00 81.0 26.4 43.3 81.0 81.0 11.7 15.8 10.8 111.5 104.4 0.00 0.2182976 88.7
2021-09-20 15:00:00 81.2 26.7 43.8 81.2 81.2 7.2 12.8 9.6 81.3 78.2 0.00 0.2155354 88.8
2021-09-20 15:05:00 81.6 26.4 43.7 81.6 81.6 14.4 14.4 10.4 85.8 77.8 0.00 0.2118182 89.0
2021-09-20 15:10:00 81.3 26.4 43.5 81.3 81.3 9.6 15.8 10.5 79.4 71.3 0.00 0.2078095 89.1
2021-09-20 15:15:00 81.8 25.9 43.4 81.8 81.8 9.4 14.2 10.1 72.1 79.4 0.00 0.2042886 89.2
2021-09-20 15:20:00 81.3 26.5 43.6 81.3 81.3 8.3 14.7 10.0 107.5 79.0 0.00 0.2005104 89.3
2021-09-20 15:25:00 82.7 25.6 44.0 82.7 82.7 7.4 11.3 7.5 51.6 93.8 0.00 0.1957480 89.4
2021-09-20 15:30:00 81.9 26.3 44.0 81.9 81.9 6.3 14.4 9.7 127.9 67.7 0.00 0.1914918 89.5
2021-09-20 15:35:00 81.8 26.1 43.6 81.8 81.8 11.5 14.2 10.5 65.0 72.8 0.00 0.1873967 89.7
2021-09-20 15:40:00 82.4 25.8 43.9 82.4 82.4 12.2 13.7 9.6 103.6 76.7 0.00 0.1828362 89.7
2021-09-20 15:45:00 82.0 26.0 43.8 82.0 82.0 6.5 14.4 11.0 90.8 69.6 0.00 0.1780113 89.8
2021-09-20 15:50:00 82.3 25.6 43.6 82.3 82.3 6.2 12.8 8.7 105.2 73.9 0.00 0.1736491 89.8
2021-09-20 15:55:00 82.0 26.0 43.7 82.0 82.0 10.1 14.9 9.3 48.5 75.6 0.00 0.1694299 89.9
2021-09-20 16:00:00 82.4 25.6 43.7 82.4 82.4 8.0 13.0 7.9 72.3 65.8 0.00 0.1651155 89.9
2021-09-20 16:05:00 82.6 25.5 43.8 82.6 82.6 8.8 9.7 7.0 75.2 91.8 0.00 0.1598208 89.9
2021-09-20 16:10:00 82.5 25.6 43.8 82.5 82.5 11.2 15.6 9.4 66.7 68.7 0.00 0.1547800 89.9
2021-09-20 16:15:00 81.3 27.0 44.1 81.3 81.3 6.5 13.3 8.9 72.7 67.4 0.00 0.1501041 89.9
2021-09-20 16:20:00 81.9 26.1 43.7 81.9 81.9 4.7 12.8 8.3 90.8 78.7 0.00 0.1449455 89.9
2021-09-20 16:25:00 81.9 25.9 43.6 81.9 81.9 9.6 12.6 8.7 70.8 84.0 0.00 0.1399747 89.8
2021-09-20 16:30:00 81.9 25.9 43.5 81.9 81.9 11.2 13.3 8.4 143.9 96.2 0.00 0.1350731 89.8
2021-09-20 16:35:00 82.1 26.0 43.8 82.1 82.1 8.7 13.0 8.5 63.7 101.1 0.00 0.1304212 89.8
2021-09-20 16:40:00 81.2 26.3 43.4 81.2 81.2 10.8 14.4 10.8 99.5 91.5 0.00 0.1253000 89.7
2021-09-20 16:45:00 81.7 26.3 43.7 81.7 81.7 6.5 11.9 8.9 96.8 87.9 0.00 0.1202007 89.7
2021-09-20 16:50:00 81.3 26.4 43.5 81.3 81.3 9.9 15.3 10.2 98.1 87.3 0.00 0.1154039 89.6
2021-09-20 16:55:00 81.4 26.4 43.6 81.4 81.4 8.5 13.3 9.6 77.7 86.0 0.00 0.1099777 89.5
2021-09-20 17:00:00 81.7 26.1 43.6 81.7 81.7 11.5 12.1 9.1 103.3 94.8 0.00 0.1046427 89.5
2021-09-20 17:05:00 81.3 26.5 43.6 81.3 81.3 9.7 13.7 9.6 38.3 84.6 0.00 0.1000122 89.4
2021-09-20 17:10:00 81.0 26.8 43.6 81.0 81.0 8.3 13.9 8.7 78.1 80.1 0.00 0.0947509 89.4
2021-09-20 17:15:00 80.9 26.6 43.4 80.9 80.9 8.7 11.7 8.5 94.3 86.1 0.00 0.0896240 89.3
2021-09-20 17:20:00 80.9 26.8 43.6 80.9 80.9 11.2 13.1 9.4 35.7 74.8 0.00 0.0843038 89.2
2021-09-20 17:25:00 80.4 26.9 43.3 80.4 80.4 8.8 13.0 10.0 113.1 91.2 0.00 0.0788438 89.1
2021-09-20 17:30:00 80.7 26.8 43.4 80.7 80.7 10.8 12.2 8.4 75.1 84.1 0.00 0.0740605 89.0
2021-09-20 17:35:00 80.2 27.0 43.2 80.2 80.2 8.1 13.3 10.4 89.4 77.3 0.00 0.0690817 88.9
2021-09-20 17:40:00 79.9 27.3 43.2 79.9 79.9 11.5 15.5 10.3 69.0 74.6 0.00 0.0638434 88.8
2021-09-20 17:45:00 79.9 27.5 43.4 79.9 79.9 7.2 14.2 9.8 85.0 68.0 0.00 0.0589113 88.6
2021-09-20 17:50:00 79.7 27.5 43.2 79.7 79.7 8.8 12.8 9.4 84.7 73.4 0.00 0.0539442 88.5
2021-09-20 17:55:00 79.3 27.6 43.0 79.3 79.3 9.0 13.7 10.5 70.3 68.5 0.00 0.0493206 88.4
2021-09-20 18:00:00 79.2 27.7 43.0 79.2 79.2 8.1 11.7 9.4 58.2 66.7 0.00 0.0445325 88.2
2021-09-20 18:05:00 79.1 27.7 42.9 79.1 79.1 12.6 15.8 10.6 67.6 64.8 0.00 0.0399536 88.1
2021-09-20 18:10:00 78.7 28.0 42.9 78.7 78.7 9.6 12.4 9.5 53.7 68.8 0.00 0.0352761 88.0
2021-09-20 18:15:00 78.6 28.0 42.8 78.6 78.6 4.9 11.3 7.8 91.3 80.9 0.00 0.0305135 87.9
2021-09-20 18:20:00 78.4 28.6 43.2 78.4 78.4 7.1 10.8 7.6 63.4 71.5 0.00 0.0259289 87.7
2021-09-20 18:25:00 77.8 28.8 42.9 77.8 77.8 6.5 13.3 9.3 64.7 68.1 0.00 0.0215343 87.6
2021-09-20 18:30:00 77.4 29.0 42.6 77.4 77.4 7.6 12.6 9.6 63.5 66.5 0.00 0.0171006 87.4
2021-09-20 18:35:00 77.1 29.3 42.7 77.1 77.1 8.3 12.4 9.3 61.1 69.6 0.00 0.0126777 87.3
2021-09-20 18:40:00 76.8 29.4 42.5 76.8 76.8 10.1 15.6 11.3 69.7 64.3 0.00 0.0085472 87.1
2021-09-20 18:45:00 76.4 29.7 42.4 76.4 76.4 9.2 13.0 10.2 61.1 63.7 0.00 0.0046450 87.0
2021-09-20 18:50:00 76.1 30.0 42.4 76.1 76.1 8.5 12.8 10.0 63.9 66.1 0.00 0.0013146 86.8
2021-09-20 18:55:00 75.7 30.5 42.5 75.7 75.7 9.0 11.3 8.2 74.2 66.7 0.00 0.0000103 86.6
2021-09-20 19:00:00 75.3 30.8 42.4 75.3 75.3 8.0 11.5 8.5 77.2 68.6 0.00 0.0000000 86.5
2021-09-20 19:05:00 74.8 31.2 42.4 74.8 74.8 6.2 9.9 7.1 98.3 72.3 0.00 0.0000000 86.3
2021-09-20 19:10:00 74.7 31.5 42.4 74.7 74.7 10.5 10.5 7.4 63.4 71.3 0.00 0.0000000 86.1
2021-09-20 19:15:00 74.6 31.5 42.3 74.6 74.6 6.7 9.9 7.5 77.8 72.7 0.00 0.0000000 85.9
2021-09-20 19:20:00 74.2 31.7 42.2 74.2 74.2 7.8 11.0 7.6 64.5 72.5 0.00 0.0000000 85.7
2021-09-20 19:25:00 73.7 32.4 42.4 73.7 73.7 10.5 10.5 7.0 70.9 68.2 0.00 0.0000000 85.6
2021-09-20 19:30:00 73.6 32.5 42.4 73.6 73.6 6.9 11.2 7.7 81.7 67.2 0.00 0.0000000 85.3
2021-09-20 19:35:00 73.7 32.3 42.3 73.7 73.7 6.9 11.2 8.5 101.2 73.6 0.00 0.0000000 85.2
2021-09-20 19:40:00 73.3 32.5 42.1 73.3 73.3 9.0 11.9 8.8 36.5 68.3 0.00 0.0000000 85.0
2021-09-20 19:45:00 73.1 32.6 42.0 73.1 73.1 13.1 13.1 8.8 70.0 67.0 0.00 0.0000000 84.8
2021-09-20 19:50:00 73.0 32.8 42.0 73.0 73.0 9.0 11.7 9.1 60.1 72.5 0.00 0.0000000 84.6
2021-09-20 19:55:00 72.6 33.0 41.9 72.6 72.6 13.0 13.0 8.3 85.0 66.1 0.00 0.0000000 84.5
2021-09-20 20:00:00 72.7 32.8 41.8 72.7 72.7 11.3 12.4 10.2 62.4 67.2 0.00 0.0000000 84.2
2021-09-20 20:05:00 72.2 33.4 41.8 72.2 72.2 9.2 11.9 8.5 53.1 56.7 0.00 0.0000000 84.1
2021-09-20 20:10:00 71.5 34.1 41.8 71.5 71.5 6.5 9.4 7.2 50.7 52.2 0.00 0.0000000 83.9
2021-09-20 20:15:00 70.8 34.7 41.5 70.8 70.8 8.5 9.4 7.6 41.9 49.5 0.00 0.0000000 83.7
2021-09-20 20:20:00 70.8 34.2 41.2 70.8 70.8 6.9 11.9 8.6 62.7 53.5 0.00 0.0000000 83.5
2021-09-20 20:25:00 70.9 33.8 41.0 70.9 70.9 8.1 12.2 9.3 43.0 56.8 0.00 0.0000000 83.4
2021-09-20 20:30:00 70.8 33.8 40.9 70.8 70.8 8.0 11.9 8.9 48.2 59.7 0.00 0.0000000 83.2
2021-09-20 20:35:00 70.7 33.8 40.8 70.7 70.7 8.8 12.8 9.0 58.0 58.9 0.00 0.0000000 83.0
2021-09-20 20:40:00 70.5 33.4 40.4 70.5 70.5 7.2 12.2 9.8 49.5 56.1 0.00 0.0000000 82.9
2021-09-20 20:45:00 70.4 33.7 40.5 70.4 70.4 9.6 12.2 9.5 34.7 55.9 0.00 0.0000000 82.7
2021-09-20 20:50:00 70.3 33.8 40.5 70.3 70.3 9.9 11.2 9.0 65.8 56.3 0.00 0.0000000 82.5
2021-09-20 20:55:00 70.3 33.9 40.5 70.3 70.3 10.5 12.6 9.8 73.7 54.8 0.00 0.0000000 82.4
2021-09-20 21:00:00 70.2 34.0 40.5 70.2 70.2 8.5 13.3 9.5 64.9 57.5 0.00 0.0000000 82.2
2021-09-20 21:05:00 69.8 34.2 40.3 69.8 69.8 7.2 12.1 9.3 57.3 54.3 0.00 0.0000000 82.1
2021-09-20 21:10:00 69.8 34.5 40.6 69.8 69.8 8.7 11.5 8.8 65.7 50.3 0.00 0.0000000 81.9
2021-09-20 21:15:00 69.5 34.7 40.4 69.5 69.5 10.8 12.1 9.6 47.6 54.9 0.00 0.0000000 81.7
2021-09-20 21:20:00 69.3 34.7 40.3 69.3 69.3 8.1 13.7 9.8 56.8 54.1 0.00 0.0000000 81.6
2021-09-20 21:25:00 69.1 35.1 40.3 69.1 69.1 9.4 11.9 9.0 47.8 54.7 0.00 0.0000000 81.4
2021-09-20 21:30:00 68.7 35.4 40.3 68.7 68.7 8.5 11.7 8.6 53.1 59.4 0.00 0.0000000 81.3
2021-09-20 21:35:00 68.6 35.6 40.3 68.6 68.6 10.3 11.2 7.9 60.4 63.3 0.00 0.0000000 81.1
2021-09-20 21:40:00 68.5 35.7 40.3 68.5 68.5 9.7 9.9 8.5 42.4 57.7 0.00 0.0000000 81.0
2021-09-20 21:45:00 68.2 36.0 40.3 68.2 68.2 8.5 11.2 8.1 58.5 57.2 0.00 0.0000000 80.9
2021-09-20 21:50:00 68.2 36.1 40.3 68.2 68.2 6.7 11.9 8.1 66.5 61.4 0.00 0.0000000 80.7
2021-09-20 21:55:00 68.1 36.2 40.3 68.1 68.1 7.2 11.3 8.6 73.1 59.5 0.00 0.0000000 80.5
2021-09-20 22:00:00 68.1 36.0 40.2 68.1 68.1 8.5 11.5 9.7 45.2 56.3 0.00 0.0000000 80.4
2021-09-20 22:05:00 67.6 36.6 40.1 67.6 67.6 8.0 9.7 7.5 37.2 49.4 0.00 0.0000000 80.2
2021-09-20 22:10:00 67.6 36.7 40.2 67.6 67.6 7.4 11.0 7.6 40.3 49.6 0.00 0.0000000 80.2
2021-09-20 22:15:00 67.1 37.0 40.0 67.1 67.1 8.7 8.7 6.5 32.4 42.8 0.00 0.0000000 80.0
2021-09-20 22:20:00 67.1 36.2 39.4 67.1 67.1 10.6 13.3 8.4 40.9 41.3 0.00 0.0000000 79.8
2021-09-20 22:25:00 67.0 35.5 38.8 67.0 67.0 10.6 12.8 9.7 28.8 44.0 0.00 0.0000000 79.7

Data is courtesy of the NM Climate Center. DO NOT USE IN LEGAL PROCEEDINGS.